createdAt,value
2017-06-30T00:00:33.363Z,999.77
2017-06-30T00:01:42.576Z,999.76
2017-06-30T00:02:51.790Z,999.74
2017-06-30T00:04:01.051Z,999.75
2017-06-30T00:05:09.941Z,999.8
2017-06-30T00:06:19.154Z,999.77
2017-06-30T00:07:28.370Z,999.8
2017-06-30T00:08:37.257Z,999.81
2017-06-30T00:09:46.518Z,999.86
2017-06-30T00:10:55.728Z,999.87
2017-06-30T00:12:05.268Z,999.89
2017-06-30T00:13:14.805Z,999.88
2017-06-30T00:14:23.698Z,999.9
2017-06-30T00:15:32.785Z,999.84
2017-06-30T00:16:42.324Z,999.92
2017-06-30T00:17:52.182Z,999.92
2017-06-30T00:19:01.069Z,999.93
2017-06-30T00:20:10.601Z,999.95
2017-06-30T00:21:19.488Z,1000.03
2017-06-30T00:22:28.375Z,1000.04
2017-06-30T00:23:37.590Z,1000.02
2017-06-30T00:24:46.802Z,1000.02
2017-06-30T00:25:55.689Z,1000.05
2017-06-30T00:27:04.875Z,1000.07
2017-06-30T00:28:13.765Z,1000.07
2017-06-30T00:29:22.688Z,1000.06
2017-06-30T00:30:31.578Z,1000.05
2017-06-30T00:31:40.795Z,1000.05
2017-06-30T00:32:49.833Z,1000.09
2017-06-30T00:33:58.722Z,1000.15
2017-06-30T00:35:07.936Z,1000.1
2017-06-30T00:36:16.824Z,1000.06
2017-06-30T00:37:26.361Z,1000.12
2017-06-30T00:38:35.461Z,1000.09
2017-06-30T00:39:44.347Z,1000.1
2017-06-30T00:40:53.237Z,1000.05
2017-06-30T00:42:02.126Z,1000.07
2017-06-30T00:43:11.015Z,1000.06
2017-06-30T00:44:19.901Z,1000.03
2017-06-30T00:45:29.110Z,1000.06
2017-06-30T00:46:38.001Z,1000.07
2017-06-30T00:47:47.219Z,999.97
2017-06-30T00:48:56.106Z,1000.05
2017-06-30T00:50:05.094Z,1000.03
2017-06-30T00:51:13.983Z,999.98
2017-06-30T00:52:22.876Z,999.98
2017-06-30T00:53:32.087Z,1000.02
2017-06-30T00:54:40.970Z,999.99
2017-06-30T00:55:50.007Z,999.99
2017-06-30T00:56:59.548Z,999.99
2017-06-30T00:58:08.756Z,999.96
2017-06-30T00:59:17.967Z,1000.03
2017-06-30T01:00:26.857Z,999.97
2017-06-30T01:01:36.207Z,999.99
2017-06-30T01:02:45.096Z,1000.02
2017-06-30T01:03:53.982Z,999.99
2017-06-30T01:05:03.194Z,1000.03
2017-06-30T01:06:12.082Z,999.98
2017-06-30T01:07:21.021Z,1000.05
2017-06-30T01:08:30.239Z,1000.05
2017-06-30T01:09:39.128Z,1000
2017-06-30T01:10:48.017Z,999.97
2017-06-30T01:11:56.903Z,1000.02
2017-06-30T01:13:05.937Z,999.99
2017-06-30T01:14:15.150Z,999.99
2017-06-30T01:15:24.040Z,1000.02
2017-06-30T01:16:32.938Z,999.99
2017-06-30T01:17:42.151Z,999.97
2017-06-30T01:18:51.189Z,1000.02
2017-06-30T01:20:00.723Z,1000.05
2017-06-30T01:21:09.611Z,1000.02
2017-06-30T01:22:19.153Z,1000.03
2017-06-30T01:23:28.690Z,1000.01
2017-06-30T01:24:38.556Z,1000.03
2017-06-30T01:25:48.098Z,1000.05
2017-06-30T01:26:57.313Z,1000
2017-06-30T01:28:06.198Z,1000.06
2017-06-30T01:29:15.085Z,1000.06
2017-06-30T01:30:23.970Z,1000.02
2017-06-30T01:31:32.862Z,1000.01
2017-06-30T01:32:41.748Z,1000
2017-06-30T01:33:50.632Z,999.99
2017-06-30T01:34:59.524Z,999.98
2017-06-30T01:36:08.422Z,1000
2017-06-30T01:37:17.638Z,1000
2017-06-30T01:38:26.526Z,999.97
2017-06-30T01:39:35.415Z,999.97
2017-06-30T01:40:44.302Z,999.97
2017-06-30T01:41:53.669Z,999.96
2017-06-30T01:43:02.885Z,999.95
2017-06-30T01:44:11.773Z,999.92
2017-06-30T01:45:20.660Z,999.89
2017-06-30T01:46:29.547Z,999.88
2017-06-30T01:47:38.817Z,999.9
2017-06-30T01:48:48.029Z,999.89
2017-06-30T01:49:57.241Z,999.87
2017-06-30T01:51:06.796Z,999.9
2017-06-30T01:52:15.691Z,999.86
2017-06-30T01:53:24.781Z,999.88
2017-06-30T01:54:33.990Z,999.82
2017-06-30T01:55:42.875Z,999.86
2017-06-30T01:56:51.772Z,999.9
2017-06-30T01:58:00.660Z,999.89
2017-06-30T01:59:09.749Z,999.85
2017-06-30T02:00:18.958Z,999.9
2017-06-30T02:01:28.175Z,999.84
2017-06-30T02:02:37.386Z,999.86
2017-06-30T02:03:46.276Z,999.89
2017-06-30T02:04:55.787Z,999.9
2017-06-30T02:06:04.998Z,999.91
2017-06-30T02:07:13.885Z,999.91
2017-06-30T02:08:22.773Z,999.92
2017-06-30T02:09:31.665Z,999.97
2017-06-30T02:10:40.653Z,1000
2017-06-30T02:11:49.545Z,1000.04
2017-06-30T02:12:58.757Z,1000.02
2017-06-30T02:14:07.642Z,1000.07
2017-06-30T02:15:16.850Z,1000.07
2017-06-30T02:16:25.792Z,1000.1
2017-06-30T02:17:35.004Z,1000.07
2017-06-30T02:18:44.217Z,1000.1
2017-06-30T02:19:53.757Z,1000.13
2017-06-30T02:21:02.969Z,1000.14
2017-06-30T02:22:12.010Z,1000.16
2017-06-30T02:23:20.901Z,1000.17
2017-06-30T02:24:30.115Z,1000.16
2017-06-30T02:25:39.330Z,1000.18
2017-06-30T02:26:48.215Z,1000.19
2017-06-30T02:27:57.402Z,1000.19
2017-06-30T02:29:06.613Z,1000.14
2017-06-30T02:30:15.503Z,1000.18
2017-06-30T02:31:24.717Z,1000.17
2017-06-30T02:32:34.253Z,1000.15
2017-06-30T02:33:44.090Z,1000.16
2017-06-30T02:34:53.304Z,1000.15
2017-06-30T02:36:02.194Z,1000.18
2017-06-30T02:37:11.086Z,1000.17
2017-06-30T02:38:19.974Z,1000.18
2017-06-30T02:39:29.889Z,1000.15
2017-06-30T02:40:39.102Z,1000.09
2017-06-30T02:41:47.989Z,1000.1
2017-06-30T02:42:57.202Z,1000.08
2017-06-30T02:44:06.089Z,1000.03
2017-06-30T02:45:15.075Z,999.99
2017-06-30T02:46:24.294Z,999.97
2017-06-30T02:47:33.184Z,999.99
2017-06-30T02:48:42.072Z,999.98
2017-06-30T02:49:51.620Z,999.97
2017-06-30T02:51:00.933Z,999.94
2017-06-30T02:52:09.823Z,999.99
2017-06-30T02:53:18.739Z,999.98
2017-06-30T02:54:27.947Z,999.96
2017-06-30T02:55:36.832Z,999.99
2017-06-30T02:56:45.867Z,999.97
2017-06-30T02:57:54.754Z,999.97
2017-06-30T02:59:03.969Z,1000.02
2017-06-30T03:00:13.507Z,1000.02
2017-06-30T03:01:22.404Z,1000.02
2017-06-30T03:02:31.291Z,1000.04
2017-06-30T03:03:40.502Z,1000.04
2017-06-30T03:04:49.385Z,1000.07
2017-06-30T03:05:58.595Z,1000.07
2017-06-30T03:07:07.479Z,1000.08
2017-06-30T03:08:16.792Z,1000.05
2017-06-30T03:09:26.003Z,1000.11
2017-06-30T03:10:34.890Z,1000.09
2017-06-30T03:11:43.776Z,1000.08
2017-06-30T03:12:52.994Z,1000.1
2017-06-30T03:14:02.462Z,1000.14
2017-06-30T03:15:11.672Z,1000.11
2017-06-30T03:16:20.560Z,1000.08
2017-06-30T03:17:29.448Z,1000.12
2017-06-30T03:18:38.661Z,1000.09
2017-06-30T03:19:47.698Z,1000
2017-06-30T03:20:56.582Z,1000.03
2017-06-30T03:22:05.794Z,1000.03
2017-06-30T03:23:14.686Z,1000.05
2017-06-30T03:24:24.554Z,999.99
2017-06-30T03:25:33.442Z,1000.01
2017-06-30T03:26:42.337Z,1000
2017-06-30T03:27:51.226Z,999.96
2017-06-30T03:29:00.109Z,999.95
2017-06-30T03:30:09.000Z,999.96
2017-06-30T03:31:18.262Z,999.96
2017-06-30T03:32:27.153Z,999.93
2017-06-30T03:33:36.039Z,999.97
2017-06-30T03:34:45.255Z,999.98
2017-06-30T03:35:54.142Z,999.99
2017-06-30T03:37:03.678Z,999.99
2017-06-30T03:38:12.571Z,1000
2017-06-30T03:39:21.460Z,999.97
2017-06-30T03:40:30.342Z,999.97
2017-06-30T03:41:39.229Z,999.96
2017-06-30T03:42:48.521Z,999.98
2017-06-30T03:43:58.064Z,1000
2017-06-30T03:45:07.280Z,999.98
2017-06-30T03:46:16.822Z,999.95
2017-06-30T03:47:26.374Z,999.9
2017-06-30T03:48:35.459Z,999.92
2017-06-30T03:49:44.668Z,999.88
2017-06-30T03:50:53.553Z,999.91
2017-06-30T03:52:02.445Z,999.9
2017-06-30T03:53:11.666Z,999.89
2017-06-30T03:54:20.650Z,999.92
2017-06-30T03:55:29.861Z,999.89
2017-06-30T03:56:38.764Z,999.89
2017-06-30T03:57:47.974Z,999.88
2017-06-30T03:58:56.860Z,999.88
2017-06-30T04:00:05.846Z,999.89
2017-06-30T04:01:15.061Z,999.89
2017-06-30T04:02:23.947Z,999.87
2017-06-30T04:03:32.833Z,999.87
2017-06-30T04:04:42.050Z,999.88
2017-06-30T04:05:51.187Z,999.87
2017-06-30T04:07:00.073Z,999.92
2017-06-30T04:08:09.284Z,999.92
2017-06-30T04:09:18.171Z,999.9
2017-06-30T04:10:27.706Z,999.93
2017-06-30T04:11:36.919Z,999.93
2017-06-30T04:12:45.807Z,999.98
2017-06-30T04:13:55.338Z,999.97
2017-06-30T04:15:04.222Z,999.94
2017-06-30T04:16:13.111Z,999.97
2017-06-30T04:17:22.103Z,999.97
2017-06-30T04:18:31.311Z,999.94
2017-06-30T04:19:40.842Z,999.95
2017-06-30T04:20:50.062Z,1000.02
2017-06-30T04:21:59.274Z,999.95
2017-06-30T04:23:08.590Z,1000
2017-06-30T04:24:18.134Z,999.97
2017-06-30T04:25:27.021Z,1000.02
2017-06-30T04:26:36.231Z,1000.05
2017-06-30T04:27:45.443Z,1000.07
2017-06-30T04:28:54.754Z,1000.06
2017-06-30T04:30:03.643Z,1000.07
2017-06-30T04:31:12.534Z,1000.09
2017-06-30T04:32:21.427Z,1000.11
2017-06-30T04:33:30.636Z,1000.04
2017-06-30T04:34:40.149Z,1000.06
2017-06-30T04:35:49.360Z,1000.04
2017-06-30T04:36:58.576Z,1000.02
2017-06-30T04:38:08.126Z,1000.03
2017-06-30T04:39:17.034Z,1000.03
2017-06-30T04:40:26.023Z,1000.08
2017-06-30T04:41:34.958Z,1000.07
2017-06-30T04:42:43.846Z,1000.09
2017-06-30T04:43:52.733Z,1000.09
2017-06-30T04:45:01.619Z,1000.1
2017-06-30T04:46:11.081Z,1000.08
2017-06-30T04:47:19.977Z,1000.11
2017-06-30T04:48:29.519Z,1000.14
2017-06-30T04:49:38.404Z,1000.19
2017-06-30T04:50:47.614Z,1000.19
2017-06-30T04:51:56.831Z,1000.18
2017-06-30T04:53:06.088Z,1000.24
2017-06-30T04:54:15.299Z,1000.19
2017-06-30T04:55:24.517Z,1000.24
2017-06-30T04:56:34.380Z,1000.27
2017-06-30T04:57:43.741Z,1000.25
2017-06-30T04:58:52.632Z,1000.28
2017-06-30T05:00:01.843Z,1000.3
2017-06-30T05:01:10.739Z,1000.28
2017-06-30T05:02:19.631Z,1000.31
2017-06-30T05:03:29.245Z,1000.3
2017-06-30T05:04:38.135Z,1000.33
2017-06-30T05:05:47.025Z,1000.37
2017-06-30T05:06:55.917Z,1000.37
2017-06-30T05:08:04.810Z,1000.4
2017-06-30T05:09:14.670Z,1000.43
2017-06-30T05:10:24.533Z,1000.46
2017-06-30T05:11:33.427Z,1000.41
2017-06-30T05:12:42.322Z,1000.43
2017-06-30T05:13:51.215Z,1000.44
2017-06-30T05:15:00.633Z,1000.44
2017-06-30T05:16:09.850Z,1000.42
2017-06-30T05:17:19.388Z,1000.39
2017-06-30T05:18:28.604Z,1000.42
2017-06-30T05:19:37.816Z,1000.37
2017-06-30T05:20:46.857Z,1000.4
2017-06-30T05:21:55.748Z,1000.42
2017-06-30T05:23:04.640Z,1000.44
2017-06-30T05:24:14.182Z,1000.44
2017-06-30T05:25:23.068Z,1000.44
2017-06-30T05:26:32.329Z,1000.44
2017-06-30T05:27:41.215Z,1000.45
2017-06-30T05:28:50.429Z,1000.46
2017-06-30T05:29:59.319Z,1000.49
2017-06-30T05:31:08.527Z,1000.44
2017-06-30T05:32:17.566Z,1000.45
2017-06-30T05:33:26.454Z,1000.47
2017-06-30T05:34:35.349Z,1000.46
2017-06-30T05:35:44.562Z,1000.49
2017-06-30T05:36:53.477Z,1000.5
2017-06-30T05:38:02.463Z,1000.49
2017-06-30T05:39:11.354Z,1000.5
2017-06-30T05:40:20.242Z,1000.52
2017-06-30T05:41:29.135Z,1000.52
2017-06-30T05:42:38.348Z,1000.59
2017-06-30T05:43:47.346Z,1000.57
2017-06-30T05:44:56.234Z,1000.58
2017-06-30T05:46:05.125Z,1000.57
2017-06-30T05:47:14.014Z,1000.57
2017-06-30T05:48:22.905Z,1000.56
2017-06-30T05:49:31.850Z,1000.59
2017-06-30T05:50:41.068Z,1000.55
2017-06-30T05:51:50.605Z,1000.57
2017-06-30T05:52:59.490Z,1000.56
2017-06-30T05:54:08.380Z,1000.57
2017-06-30T05:55:17.268Z,1000.57
2017-06-30T05:56:26.484Z,1000.58
2017-06-30T05:57:35.695Z,1000.59
2017-06-30T05:58:44.583Z,1000.54
2017-06-30T05:59:53.471Z,1000.6
2017-06-30T06:01:02.787Z,1000.58
2017-06-30T06:02:11.679Z,1000.64
2017-06-30T06:03:20.896Z,1000.61
2017-06-30T06:04:29.783Z,1000.64
2017-06-30T06:05:38.674Z,1000.64
2017-06-30T06:06:48.260Z,1000.65
2017-06-30T06:07:57.798Z,1000.66
2017-06-30T06:09:06.688Z,1000.65
2017-06-30T06:10:15.899Z,1000.65
2017-06-30T06:11:24.794Z,1000.63
2017-06-30T06:12:34.007Z,1000.64
2017-06-30T06:13:42.895Z,1000.64
2017-06-30T06:14:52.760Z,1000.63
2017-06-30T06:16:01.650Z,1000.66
2017-06-30T06:17:10.542Z,1000.67
2017-06-30T06:18:19.530Z,1000.66
2017-06-30T06:19:28.461Z,1000.7
2017-06-30T06:20:37.701Z,1000.7
2017-06-30T06:21:47.560Z,1000.67
2017-06-30T06:22:56.780Z,1000.63
2017-06-30T06:24:06.145Z,1000.66
2017-06-30T06:25:15.045Z,1000.67
2017-06-30T06:26:23.936Z,1000.68
2017-06-30T06:27:32.826Z,1000.64
2017-06-30T06:28:42.043Z,1000.64
2017-06-30T06:29:51.135Z,1000.7
2017-06-30T06:31:00.025Z,1000.69
2017-06-30T06:32:08.916Z,1000.71
2017-06-30T06:33:17.806Z,1000.72
2017-06-30T06:34:27.348Z,1000.73
2017-06-30T06:35:36.385Z,1000.73
2017-06-30T06:36:45.273Z,1000.73
2017-06-30T06:37:54.169Z,1000.73
2017-06-30T06:39:03.709Z,1000.75
2017-06-30T06:40:12.600Z,1000.74
2017-06-30T06:41:21.587Z,1000.74
2017-06-30T06:42:30.819Z,1000.78
2017-06-30T06:43:40.031Z,1000.72
2017-06-30T06:44:48.919Z,1000.74
2017-06-30T06:45:57.812Z,1000.78
2017-06-30T06:47:06.858Z,1000.74
2017-06-30T06:48:16.406Z,1000.8
2017-06-30T06:49:25.296Z,1000.77
2017-06-30T06:50:34.180Z,1000.75
2017-06-30T06:51:43.072Z,1000.81
2017-06-30T06:52:52.384Z,1000.79
2017-06-30T06:54:01.280Z,1000.77
2017-06-30T06:55:10.166Z,1000.83
2017-06-30T06:56:19.056Z,1000.79
2017-06-30T06:57:28.606Z,1000.81
2017-06-30T06:58:37.551Z,1000.78
2017-06-30T06:59:46.474Z,1000.79
2017-06-30T07:00:55.688Z,1000.76
2017-06-30T07:02:05.234Z,1000.76
2017-06-30T07:03:14.125Z,1000.84
2017-06-30T07:04:23.437Z,1000.85
2017-06-30T07:05:32.648Z,1000.76
2017-06-30T07:06:41.546Z,1000.79
2017-06-30T07:07:50.441Z,1000.83
2017-06-30T07:08:59.650Z,1000.81
2017-06-30T07:10:09.012Z,1000.83
2017-06-30T07:11:18.571Z,1000.77
2017-06-30T07:12:27.461Z,1000.82
2017-06-30T07:13:36.370Z,1000.85
2017-06-30T07:14:45.582Z,1000.82
2017-06-30T07:15:54.869Z,1000.86
2017-06-30T07:17:03.759Z,1000.85
2017-06-30T07:18:12.649Z,1000.88
2017-06-30T07:19:21.864Z,1000.89
2017-06-30T07:20:30.756Z,1000.87
2017-06-30T07:21:40.720Z,1000.86
2017-06-30T07:22:49.933Z,1000.87
2017-06-30T07:23:58.818Z,1000.88
2017-06-30T07:25:07.707Z,1000.83
2017-06-30T07:26:16.597Z,1000.87
2017-06-30T07:27:25.815Z,1000.88
2017-06-30T07:28:35.030Z,1000.86
2017-06-30T07:29:43.920Z,1000.88
2017-06-30T07:30:53.138Z,1000.91
2017-06-30T07:32:02.030Z,1000.88
2017-06-30T07:33:10.974Z,1000.89
2017-06-30T07:34:19.871Z,1000.89
2017-06-30T07:35:28.759Z,1000.93
2017-06-30T07:36:37.646Z,1000.96
2017-06-30T07:37:46.536Z,1000.93
2017-06-30T07:38:55.953Z,1000.92
2017-06-30T07:40:04.844Z,1000.9
2017-06-30T07:41:14.062Z,1000.94
2017-06-30T07:42:22.951Z,1000.96
2017-06-30T07:43:32.167Z,1000.94
2017-06-30T07:44:41.434Z,1000.95
2017-06-30T07:45:50.649Z,1000.9
2017-06-30T07:46:59.543Z,1000.9
2017-06-30T07:48:08.759Z,1000.95
2017-06-30T07:49:17.651Z,1000.97
2017-06-30T07:50:26.943Z,1000.91
2017-06-30T07:51:36.158Z,1000.92
2017-06-30T07:52:45.375Z,1000.94
2017-06-30T07:53:54.263Z,1000.89
2017-06-30T07:55:03.481Z,1000.89
2017-06-30T07:56:12.750Z,1000.93
2017-06-30T07:57:21.646Z,1000.87
2017-06-30T07:58:30.549Z,1000.95
2017-06-30T07:59:39.761Z,1000.9
2017-06-30T08:00:48.975Z,1000.9
2017-06-30T08:01:58.389Z,1000.9
2017-06-30T08:03:07.600Z,1000.91
2017-06-30T08:04:16.493Z,1000.9
2017-06-30T08:05:25.711Z,1000.88
2017-06-30T08:06:34.942Z,1000.9
2017-06-30T08:07:44.307Z,1000.91
2017-06-30T08:08:53.526Z,1000.95
2017-06-30T08:10:02.741Z,1000.92
2017-06-30T08:11:11.645Z,1000.98
2017-06-30T08:12:20.534Z,1000.94
2017-06-30T08:13:29.673Z,1000.95
2017-06-30T08:14:38.893Z,1000.95
2017-06-30T08:15:47.789Z,1000.95
2017-06-30T08:16:56.686Z,1000.94
2017-06-30T08:18:05.591Z,1000.96
2017-06-30T08:19:15.385Z,1000.94
2017-06-30T08:20:24.613Z,1000.96
2017-06-30T08:21:33.506Z,1000.96
2017-06-30T08:22:42.400Z,1000.98
2017-06-30T08:23:51.291Z,1000.99
2017-06-30T08:25:00.585Z,1000.94
2017-06-30T08:26:09.799Z,1000.96
2017-06-30T08:27:19.018Z,1001.01
2017-06-30T08:28:28.230Z,1001.05
2017-06-30T08:29:37.444Z,1001.02
2017-06-30T08:30:46.812Z,1001.02
2017-06-30T08:31:55.707Z,1001.02
2017-06-30T08:33:04.931Z,1001.01
2017-06-30T08:34:14.154Z,1001.02
2017-06-30T08:35:23.046Z,1001.08
2017-06-30T08:36:32.415Z,1000.98
2017-06-30T08:37:41.308Z,1000.99
2017-06-30T08:38:50.530Z,1000.99
2017-06-30T08:40:00.079Z,1001
2017-06-30T08:41:09.946Z,1001.05
2017-06-30T08:42:19.637Z,1000.99
2017-06-30T08:43:28.529Z,1001.03
2017-06-30T08:44:37.748Z,1000.97
2017-06-30T08:45:46.639Z,1001.07
2017-06-30T08:46:55.859Z,1001.09
2017-06-30T08:48:04.750Z,1001.13
2017-06-30T08:49:13.968Z,1001.16
2017-06-30T08:50:22.861Z,1001.08
2017-06-30T08:51:33.071Z,1001.03
2017-06-30T08:52:41.959Z,1001.11
2017-06-30T08:53:50.950Z,1001.07
2017-06-30T08:54:59.849Z,1001.06
2017-06-30T08:56:08.747Z,1001.05
2017-06-30T08:57:18.010Z,1001.09
2017-06-30T08:58:27.227Z,1001.12
2017-06-30T08:59:36.650Z,1001.09
2017-06-30T09:00:45.546Z,1001.11
2017-06-30T09:01:54.767Z,1001.08
2017-06-30T09:03:04.309Z,1001.13
2017-06-30T09:04:13.850Z,1001.11
2017-06-30T09:05:23.545Z,1001.2
2017-06-30T09:06:33.087Z,1001.16
2017-06-30T09:07:42.955Z,1001.19
2017-06-30T09:08:52.830Z,1001.26
2017-06-30T09:10:02.370Z,1001.19
2017-06-30T09:11:12.068Z,1001.2
2017-06-30T09:12:21.936Z,1001.23
2017-06-30T09:13:30.823Z,1001.19
2017-06-30T09:14:40.046Z,1001.26
2017-06-30T09:15:48.940Z,1001.27
2017-06-30T09:16:58.213Z,1001.33
2017-06-30T09:18:07.152Z,1001.29
2017-06-30T09:19:16.694Z,1001.3
2017-06-30T09:20:25.913Z,1001.31
2017-06-30T09:21:35.465Z,1001.31
2017-06-30T09:22:44.885Z,1001.36
2017-06-30T09:23:53.780Z,1001.3
2017-06-30T09:25:02.997Z,1001.32
2017-06-30T09:26:12.546Z,1001.3
2017-06-30T09:27:21.761Z,1001.34
2017-06-30T09:28:30.654Z,1001.33
2017-06-30T09:29:39.873Z,1001.33
2017-06-30T09:30:48.763Z,1001.39
2017-06-30T09:31:57.655Z,1001.32
2017-06-30T09:33:06.549Z,1001.44
2017-06-30T09:34:15.916Z,1001.37
2017-06-30T09:35:25.151Z,1001.41
2017-06-30T09:36:34.054Z,1001.41
2017-06-30T09:37:42.946Z,1001.46
2017-06-30T09:38:51.838Z,1001.46
2017-06-30T09:40:00.729Z,1001.46
2017-06-30T09:41:09.617Z,1001.51
2017-06-30T09:42:18.514Z,1001.49
2017-06-30T09:43:27.731Z,1001.5
2017-06-30T09:44:36.623Z,1001.49
2017-06-30T09:45:46.146Z,1001.48
2017-06-30T09:46:55.358Z,1001.5
2017-06-30T09:48:04.251Z,1001.52
2017-06-30T09:49:13.140Z,1001.53
2017-06-30T09:50:22.685Z,1001.53
2017-06-30T09:51:31.949Z,1001.55
2017-06-30T09:52:40.840Z,1001.57
2017-06-30T09:53:50.056Z,1001.57
2017-06-30T09:54:58.956Z,1001.59
2017-06-30T09:56:07.850Z,1001.6
2017-06-30T09:57:17.266Z,1001.59
2017-06-30T09:58:26.154Z,1001.61
2017-06-30T09:59:35.052Z,1001.61
2017-06-30T10:00:44.596Z,1001.58
2017-06-30T10:01:53.817Z,1001.6
2017-06-30T10:03:02.858Z,1001.69
2017-06-30T10:04:12.073Z,1001.62
2017-06-30T10:05:21.290Z,1001.58
2017-06-30T10:06:30.179Z,1001.69
2017-06-30T10:07:39.084Z,1001.65
2017-06-30T10:08:48.122Z,1001.59
2017-06-30T10:09:57.341Z,1001.66
2017-06-30T10:11:06.564Z,1001.65
2017-06-30T10:12:15.786Z,1001.66
2017-06-30T10:13:24.677Z,1001.62
2017-06-30T10:14:34.370Z,1001.73
2017-06-30T10:15:43.263Z,1001.71
2017-06-30T10:16:52.157Z,1001.73
2017-06-30T10:18:01.373Z,1001.73
2017-06-30T10:19:10.590Z,1001.75
2017-06-30T10:20:20.106Z,1001.8
2017-06-30T10:21:29.652Z,1001.7
2017-06-30T10:22:38.591Z,1001.77
2017-06-30T10:23:47.805Z,1001.79
2017-06-30T10:24:57.360Z,1001.85
2017-06-30T10:26:06.783Z,1001.82
2017-06-30T10:27:16.327Z,1001.84
2017-06-30T10:28:25.864Z,1001.85
2017-06-30T10:29:35.084Z,1001.79
2017-06-30T10:30:44.297Z,1001.87
2017-06-30T10:31:53.239Z,1001.84
2017-06-30T10:33:02.134Z,1001.9
2017-06-30T10:34:11.357Z,1001.82
2017-06-30T10:35:20.615Z,1001.81
2017-06-30T10:36:30.168Z,1001.89
2017-06-30T10:37:39.161Z,1001.86
2017-06-30T10:38:48.377Z,1001.89
2017-06-30T10:39:57.602Z,1001.82
2017-06-30T10:41:06.503Z,1001.86
2017-06-30T10:42:15.394Z,1001.9
2017-06-30T10:43:24.685Z,1001.91
2017-06-30T10:44:33.901Z,1001.89
2017-06-30T10:45:43.118Z,1001.83
2017-06-30T10:46:52.015Z,1001.86
2017-06-30T10:48:00.923Z,1001.91
2017-06-30T10:49:10.299Z,1001.91
2017-06-30T10:50:20.163Z,1001.99
2017-06-30T10:51:29.051Z,1002.01
2017-06-30T10:52:38.269Z,1002
2017-06-30T10:53:47.807Z,1002.05
2017-06-30T10:54:57.180Z,1002.01
2017-06-30T10:56:06.068Z,1002.04
2017-06-30T10:57:15.281Z,1002.02
2017-06-30T10:58:24.519Z,1002.02
2017-06-30T10:59:34.073Z,1002.06
2017-06-30T11:00:43.436Z,1001.99
2017-06-30T11:01:52.658Z,1001.98
2017-06-30T11:03:01.871Z,1001.99
2017-06-30T11:04:10.774Z,1002
2017-06-30T11:05:19.987Z,1001.99
2017-06-30T11:06:29.453Z,1002
2017-06-30T11:07:38.679Z,1002.02
2017-06-30T11:08:47.568Z,1002
2017-06-30T11:09:56.456Z,1002.01
2017-06-30T11:11:05.350Z,1001.99
2017-06-30T11:12:15.142Z,1001.93
2017-06-30T11:13:24.732Z,1001.89
2017-06-30T11:14:33.950Z,1001.92
2017-06-30T11:15:42.843Z,1001.96
2017-06-30T11:16:52.063Z,1001.96
2017-06-30T11:18:01.436Z,1001.97
2017-06-30T11:19:11.308Z,1001.97
2017-06-30T11:20:20.853Z,1001.99
2017-06-30T11:21:30.068Z,1001.98
2017-06-30T11:22:38.959Z,1001.99
2017-06-30T11:23:48.150Z,1002
2017-06-30T11:24:57.363Z,1002.06
2017-06-30T11:26:06.904Z,1002.06
2017-06-30T11:27:15.791Z,1002.06
2017-06-30T11:28:25.020Z,1002.05
2017-06-30T11:29:33.913Z,1002.13
2017-06-30T11:30:43.127Z,1002.17
2017-06-30T11:31:52.020Z,1002.14
2017-06-30T11:33:00.914Z,1002.19
2017-06-30T11:34:09.812Z,1002.22
2017-06-30T11:35:19.188Z,1002.23
2017-06-30T11:36:28.079Z,1002.24
2017-06-30T11:37:37.300Z,1002.26
2017-06-30T11:38:46.193Z,1002.23
2017-06-30T11:39:55.414Z,1002.29
2017-06-30T11:41:04.455Z,1002.31
2017-06-30T11:42:13.343Z,1002.27
2017-06-30T11:43:22.238Z,1002.33
2017-06-30T11:44:31.784Z,1002.27
2017-06-30T11:45:41.323Z,1002.35
2017-06-30T11:46:50.519Z,1002.3
2017-06-30T11:47:59.737Z,1002.33
2017-06-30T11:49:08.624Z,1002.32
2017-06-30T11:50:17.903Z,1002.34
2017-06-30T11:51:26.793Z,1002.37
2017-06-30T11:52:35.833Z,1002.32
2017-06-30T11:53:44.730Z,1002.38
2017-06-30T11:54:53.950Z,1002.32
2017-06-30T11:56:02.854Z,1002.34
2017-06-30T11:57:11.746Z,1002.34
2017-06-30T11:58:21.260Z,1002.31
2017-06-30T11:59:30.159Z,1002.3
2017-06-30T12:00:39.056Z,1002.28
2017-06-30T12:01:48.271Z,1002.25
2017-06-30T12:02:57.499Z,1002.27
2017-06-30T12:04:06.543Z,1002.22
2017-06-30T12:05:15.765Z,1002.23
2017-06-30T12:06:24.663Z,1002.26
2017-06-30T12:07:34.207Z,1002.23
2017-06-30T12:08:43.432Z,1002.22
2017-06-30T12:09:52.481Z,1002.23
2017-06-30T12:11:01.374Z,1002.24
2017-06-30T12:12:11.240Z,1002.24
2017-06-30T12:13:20.458Z,1002.2
2017-06-30T12:14:29.348Z,1002.17
2017-06-30T12:15:38.671Z,1002.19
2017-06-30T12:16:47.558Z,1002.19
2017-06-30T12:17:56.453Z,1002.2
2017-06-30T12:19:05.670Z,1002.16
2017-06-30T12:20:14.889Z,1002.1
2017-06-30T12:21:24.103Z,1002.12
2017-06-30T12:22:32.998Z,1002.18
2017-06-30T12:23:41.899Z,1002.17
2017-06-30T12:24:50.826Z,1002.16
2017-06-30T12:26:00.062Z,1002.16
2017-06-30T12:27:09.858Z,1002.17
2017-06-30T12:28:18.749Z,1002.27
2017-06-30T12:29:27.648Z,1002.21
2017-06-30T12:30:36.538Z,1002.27
2017-06-30T12:31:46.082Z,1002.25
2017-06-30T12:32:54.976Z,1002.38
2017-06-30T12:34:03.865Z,1002.32
2017-06-30T12:35:12.761Z,1002.31
2017-06-30T12:36:21.652Z,1002.33
2017-06-30T12:37:31.194Z,1002.36
2017-06-30T12:38:40.291Z,1002.27
2017-06-30T12:39:50.166Z,1002.26
2017-06-30T12:41:00.029Z,1002.32
2017-06-30T12:42:08.922Z,1002.37
2017-06-30T12:43:17.813Z,1002.36
2017-06-30T12:44:27.458Z,1002.35
2017-06-30T12:45:37.002Z,1002.37
2017-06-30T12:46:45.903Z,1002.42
2017-06-30T12:47:54.799Z,1002.45
2017-06-30T12:49:03.691Z,1002.43
2017-06-30T12:50:13.212Z,1002.42
2017-06-30T12:51:22.103Z,1002.45
2017-06-30T12:52:30.995Z,1002.46
2017-06-30T12:53:39.884Z,1002.48
2017-06-30T12:54:49.109Z,1002.47
2017-06-30T12:55:58.415Z,1002.51
2017-06-30T12:57:07.306Z,1002.45
2017-06-30T12:58:16.200Z,1002.49
2017-06-30T12:59:25.424Z,1002.53
2017-06-30T13:00:34.984Z,1002.51
2017-06-30T13:01:44.252Z,1002.51
2017-06-30T13:02:53.148Z,1002.53
2017-06-30T13:04:02.698Z,1002.5
2017-06-30T13:05:12.237Z,1002.53
2017-06-30T13:06:21.457Z,1002.51
2017-06-30T13:07:30.494Z,1002.48
2017-06-30T13:08:39.383Z,1002.51
2017-06-30T13:09:48.924Z,1002.48
2017-06-30T13:10:58.147Z,1002.51
2017-06-30T13:12:07.371Z,1002.48
2017-06-30T13:13:16.408Z,1002.5
2017-06-30T13:14:25.302Z,1002.56
2017-06-30T13:15:34.523Z,1002.52
2017-06-30T13:16:43.743Z,1002.53
2017-06-30T13:17:52.634Z,1002.48
2017-06-30T13:19:01.736Z,1002.52
2017-06-30T13:20:10.636Z,1002.52
2017-06-30T13:21:19.854Z,1002.42
2017-06-30T13:22:28.748Z,1002.46
2017-06-30T13:23:37.640Z,1002.48
2017-06-30T13:24:47.380Z,1002.49
2017-06-30T13:25:56.624Z,1002.46
2017-06-30T13:27:05.838Z,1002.5
2017-06-30T13:28:15.067Z,1002.5
2017-06-30T13:29:23.964Z,1002.49
2017-06-30T13:30:33.430Z,1002.48
2017-06-30T13:31:42.321Z,1002.47
2017-06-30T13:32:51.541Z,1002.48
2017-06-30T13:34:00.771Z,1002.51
2017-06-30T13:35:09.672Z,1002.52
2017-06-30T13:36:19.218Z,1002.54
2017-06-30T13:37:28.435Z,1002.62
2017-06-30T13:38:37.327Z,1002.57
2017-06-30T13:39:46.559Z,1002.57
2017-06-30T13:40:55.775Z,1002.65
2017-06-30T13:42:04.913Z,1002.6
2017-06-30T13:43:13.864Z,1002.66
2017-06-30T13:44:22.759Z,1002.68
2017-06-30T13:45:31.658Z,1002.68
2017-06-30T13:46:40.552Z,1002.67
2017-06-30T13:47:50.571Z,1002.69
2017-06-30T13:49:00.111Z,1002.67
2017-06-30T13:50:09.331Z,1002.72
2017-06-30T13:51:18.548Z,1002.71
2017-06-30T13:52:27.445Z,1002.71
2017-06-30T13:53:36.436Z,1002.72
2017-06-30T13:54:45.655Z,1002.72
2017-06-30T13:55:54.549Z,1002.75
2017-06-30T13:57:03.443Z,1002.73
2017-06-30T13:58:12.340Z,1002.74
2017-06-30T13:59:21.856Z,1002.71
2017-06-30T14:00:31.402Z,1002.7
2017-06-30T14:01:40.621Z,1002.64
2017-06-30T14:02:49.835Z,1002.67
2017-06-30T14:03:59.065Z,1002.65